sensor_id;sensor_type;location;lat;lon;timestamp;P1;durP1;ratioP1;P2;durP2;ratioP2
56824;SDS011;42705;50.326;18.772;2023-08-07T00:02:30;2.60;;;1.90;;
56824;SDS011;42705;50.326;18.772;2023-08-07T00:07:52;3.30;;;1.80;;
56824;SDS011;42705;50.326;18.772;2023-08-07T00:13:14;5.60;;;2.00;;
56824;SDS011;42705;50.326;18.772;2023-08-07T00:18:35;3.40;;;2.20;;
56824;SDS011;42705;50.326;18.772;2023-08-07T00:23:57;4.00;;;1.90;;
56824;SDS011;42705;50.326;18.772;2023-08-07T00:29:19;2.00;;;1.70;;
56824;SDS011;42705;50.326;18.772;2023-08-07T00:34:41;2.10;;;1.80;;
56824;SDS011;42705;50.326;18.772;2023-08-07T00:40:03;3.30;;;1.90;;
56824;SDS011;42705;50.326;18.772;2023-08-07T00:45:25;3.10;;;1.60;;
56824;SDS011;42705;50.326;18.772;2023-08-07T00:50:48;3.30;;;2.10;;
56824;SDS011;42705;50.326;18.772;2023-08-07T00:56:12;4.50;;;1.50;;
56824;SDS011;42705;50.326;18.772;2023-08-07T01:01:34;4.90;;;2.30;;
56824;SDS011;42705;50.326;18.772;2023-08-07T01:06:57;6.20;;;2.70;;
56824;SDS011;42705;50.326;18.772;2023-08-07T01:12:23;3.20;;;2.70;;
56824;SDS011;42705;50.326;18.772;2023-08-07T01:17:52;4.80;;;2.80;;
56824;SDS011;42705;50.326;18.772;2023-08-07T01:23:15;6.70;;;3.60;;
56824;SDS011;42705;50.326;18.772;2023-08-07T01:28:38;5.50;;;3.10;;
56824;SDS011;42705;50.326;18.772;2023-08-07T01:34:08;5.30;;;3.60;;
56824;SDS011;42705;50.326;18.772;2023-08-07T01:39:34;4.30;;;3.30;;
56824;SDS011;42705;50.326;18.772;2023-08-07T01:44:58;3.50;;;3.20;;
56824;SDS011;42705;50.326;18.772;2023-08-07T01:50:20;4.20;;;2.90;;
56824;SDS011;42705;50.326;18.772;2023-08-07T01:55:44;3.50;;;2.70;;
56824;SDS011;42705;50.326;18.772;2023-08-07T02:01:07;3.00;;;2.70;;
56824;SDS011;42705;50.326;18.772;2023-08-07T02:06:29;4.70;;;3.00;;
56824;SDS011;42705;50.326;18.772;2023-08-07T02:11:50;3.30;;;2.40;;
56824;SDS011;42705;50.326;18.772;2023-08-07T02:17:12;2.90;;;2.60;;
56824;SDS011;42705;50.326;18.772;2023-08-07T02:22:34;4.60;;;2.80;;
56824;SDS011;42705;50.326;18.772;2023-08-07T02:27:56;3.10;;;2.60;;
56824;SDS011;42705;50.326;18.772;2023-08-07T02:33:18;5.30;;;2.60;;
56824;SDS011;42705;50.326;18.772;2023-08-07T02:38:40;3.40;;;3.10;;
56824;SDS011;42705;50.326;18.772;2023-08-07T02:44:01;6.90;;;3.40;;
56824;SDS011;42705;50.326;18.772;2023-08-07T02:49:23;5.30;;;2.80;;
56824;SDS011;42705;50.326;18.772;2023-08-07T02:54:46;6.10;;;3.70;;
56824;SDS011;42705;50.326;18.772;2023-08-07T03:00:08;5.10;;;3.00;;
56824;SDS011;42705;50.326;18.772;2023-08-07T03:05:31;4.10;;;2.90;;
56824;SDS011;42705;50.326;18.772;2023-08-07T03:10:53;4.40;;;3.60;;
56824;SDS011;42705;50.326;18.772;2023-08-07T03:16:19;4.30;;;3.40;;
56824;SDS011;42705;50.326;18.772;2023-08-07T03:21:40;3.20;;;2.90;;
56824;SDS011;42705;50.326;18.772;2023-08-07T03:27:02;4.60;;;4.10;;
56824;SDS011;42705;50.326;18.772;2023-08-07T03:32:25;3.70;;;3.40;;
56824;SDS011;42705;50.326;18.772;2023-08-07T03:37:47;3.60;;;3.20;;
56824;SDS011;42705;50.326;18.772;2023-08-07T03:43:09;4.60;;;3.90;;
56824;SDS011;42705;50.326;18.772;2023-08-07T03:48:31;3.60;;;3.10;;
56824;SDS011;42705;50.326;18.772;2023-08-07T03:53:54;3.50;;;3.20;;
56824;SDS011;42705;50.326;18.772;2023-08-07T03:59:16;3.10;;;2.80;;
56824;SDS011;42705;50.326;18.772;2023-08-07T04:04:38;3.90;;;3.30;;
56824;SDS011;42705;50.326;18.772;2023-08-07T04:10:00;5.10;;;2.90;;
56824;SDS011;42705;50.326;18.772;2023-08-07T04:15:22;2.40;;;2.20;;
56824;SDS011;42705;50.326;18.772;2023-08-07T04:20:51;2.20;;;1.90;;
56824;SDS011;42705;50.326;18.772;2023-08-07T04:26:17;4.40;;;2.40;;
56824;SDS011;42705;50.326;18.772;2023-08-07T04:31:39;2.70;;;2.40;;
56824;SDS011;42705;50.326;18.772;2023-08-07T04:37:01;2.60;;;2.40;;
56824;SDS011;42705;50.326;18.772;2023-08-07T04:42:23;1.90;;;1.60;;
56824;SDS011;42705;50.326;18.772;2023-08-07T04:47:45;3.10;;;2.10;;
56824;SDS011;42705;50.326;18.772;2023-08-07T04:53:07;2.00;;;1.40;;
56824;SDS011;42705;50.326;18.772;2023-08-07T04:58:29;1.30;;;0.90;;
56824;SDS011;42705;50.326;18.772;2023-08-07T05:03:51;3.10;;;1.60;;
56824;SDS011;42705;50.326;18.772;2023-08-07T05:09:12;1.70;;;1.20;;
56824;SDS011;42705;50.326;18.772;2023-08-07T05:14:34;1.30;;;1.00;;
56824;SDS011;42705;50.326;18.772;2023-08-07T05:19:56;1.00;;;0.90;;
56824;SDS011;42705;50.326;18.772;2023-08-07T05:25:18;1.60;;;0.90;;
56824;SDS011;42705;50.326;18.772;2023-08-07T05:30:42;2.60;;;1.00;;
56824;SDS011;42705;50.326;18.772;2023-08-07T05:36:04;1.70;;;1.20;;
56824;SDS011;42705;50.326;18.772;2023-08-07T05:41:27;1.70;;;1.30;;
56824;SDS011;42705;50.326;18.772;2023-08-07T05:46:49;1.80;;;1.10;;
56824;SDS011;42705;50.326;18.772;2023-08-07T05:52:11;2.00;;;1.00;;
56824;SDS011;42705;50.326;18.772;2023-08-07T05:57:33;0.90;;;0.40;;
56824;SDS011;42705;50.326;18.772;2023-08-07T06:02:55;1.10;;;0.60;;
56824;SDS011;42705;50.326;18.772;2023-08-07T06:08:17;1.40;;;0.30;;
56824;SDS011;42705;50.326;18.772;2023-08-07T06:13:42;0.50;;;0.40;;
56824;SDS011;42705;50.326;18.772;2023-08-07T06:19:05;1.20;;;0.30;;
56824;SDS011;42705;50.326;18.772;2023-08-07T06:24:27;2.20;;;0.40;;
56824;SDS011;42705;50.326;18.772;2023-08-07T06:29:49;0.20;;;0.20;;
56824;SDS011;42705;50.326;18.772;2023-08-07T06:35:12;1.80;;;0.30;;
56824;SDS011;42705;50.326;18.772;2023-08-07T06:40:37;1.90;;;0.40;;
56824;SDS011;42705;50.326;18.772;2023-08-07T06:45:59;0.70;;;0.20;;
56824;SDS011;42705;50.326;18.772;2023-08-07T06:51:24;0.60;;;0.40;;
56824;SDS011;42705;50.326;18.772;2023-08-07T06:56:46;1.50;;;0.40;;
56824;SDS011;42705;50.326;18.772;2023-08-07T07:02:08;0.90;;;0.20;;
56824;SDS011;42705;50.326;18.772;2023-08-07T07:07:30;0.30;;;0.30;;
56824;SDS011;42705;50.326;18.772;2023-08-07T07:12:52;0.50;;;0.20;;
56824;SDS011;42705;50.326;18.772;2023-08-07T07:18:14;0.30;;;0.30;;
56824;SDS011;42705;50.326;18.772;2023-08-07T07:23:35;1.40;;;0.20;;
56824;SDS011;42705;50.326;18.772;2023-08-07T07:28:57;0.10;;;0.10;;
56824;SDS011;42705;50.326;18.772;2023-08-07T07:34:19;0.70;;;0.40;;
56824;SDS011;42705;50.326;18.772;2023-08-07T07:39:41;0.90;;;0.30;;
56824;SDS011;42705;50.326;18.772;2023-08-07T07:45:03;0.50;;;0.30;;
56824;SDS011;42705;50.326;18.772;2023-08-07T07:50:26;1.70;;;0.20;;
56824;SDS011;42705;50.326;18.772;2023-08-07T07:55:48;0.20;;;0.10;;
56824;SDS011;42705;50.326;18.772;2023-08-07T08:01:10;1.00;;;0.30;;
56824;SDS011;42705;50.326;18.772;2023-08-07T08:06:31;1.10;;;0.20;;
56824;SDS011;42705;50.326;18.772;2023-08-07T08:11:53;0.70;;;0.40;;
56824;SDS011;42705;50.326;18.772;2023-08-07T08:17:15;2.10;;;0.20;;
56824;SDS011;42705;50.326;18.772;2023-08-07T08:22:37;1.80;;;0.40;;
56824;SDS011;42705;50.326;18.772;2023-08-07T08:27:59;1.00;;;0.30;;
56824;SDS011;42705;50.326;18.772;2023-08-07T08:33:23;1.50;;;0.40;;
56824;SDS011;42705;50.326;18.772;2023-08-07T08:38:45;1.10;;;0.40;;
56824;SDS011;42705;50.326;18.772;2023-08-07T08:44:09;0.60;;;0.40;;
56824;SDS011;42705;50.326;18.772;2023-08-07T08:49:37;0.70;;;0.40;;
56824;SDS011;42705;50.326;18.772;2023-08-07T08:55:07;0.50;;;0.40;;
56824;SDS011;42705;50.326;18.772;2023-08-07T09:00:31;0.90;;;0.40;;
56824;SDS011;42705;50.326;18.772;2023-08-07T09:05:53;0.60;;;0.50;;
56824;SDS011;42705;50.326;18.772;2023-08-07T09:11:19;0.40;;;0.40;;
56824;SDS011;42705;50.326;18.772;2023-08-07T09:16:43;0.70;;;0.60;;
56824;SDS011;42705;50.326;18.772;2023-08-07T09:22:07;0.60;;;0.60;;
56824;SDS011;42705;50.326;18.772;2023-08-07T09:27:32;2.60;;;0.50;;
56824;SDS011;42705;50.326;18.772;2023-08-07T09:32:56;1.00;;;0.60;;
56824;SDS011;42705;50.326;18.772;2023-08-07T09:38:22;0.50;;;0.50;;
56824;SDS011;42705;50.326;18.772;2023-08-07T09:43:44;0.60;;;0.60;;
56824;SDS011;42705;50.326;18.772;2023-08-07T09:54:30;2.10;;;1.20;;
56824;SDS011;42705;50.326;18.772;2023-08-07T09:59:52;4.70;;;1.40;;
56824;SDS011;42705;50.326;18.772;2023-08-07T10:05:16;1.00;;;1.00;;
56824;SDS011;42705;50.326;18.772;2023-08-07T10:16:00;2.10;;;1.10;;
56824;SDS011;42705;50.326;18.772;2023-08-07T10:21:23;3.00;;;1.20;;
56824;SDS011;42705;50.326;18.772;2023-08-07T10:26:45;3.30;;;1.20;;
56824;SDS011;42705;50.326;18.772;2023-08-07T10:32:09;2.40;;;1.50;;
56824;SDS011;42705;50.326;18.772;2023-08-07T10:37:43;2.70;;;1.40;;
56824;SDS011;42705;50.326;18.772;2023-08-07T10:48:41;1.70;;;1.10;;
56824;SDS011;42705;50.326;18.772;2023-08-07T10:54:10;3.20;;;1.20;;
56824;SDS011;42705;50.326;18.772;2023-08-07T10:59:33;1.30;;;1.10;;
56824;SDS011;42705;50.326;18.772;2023-08-07T11:04:59;1.70;;;1.00;;
56824;SDS011;42705;50.326;18.772;2023-08-07T11:10:21;1.70;;;1.10;;
56824;SDS011;42705;50.326;18.772;2023-08-07T11:15:43;2.80;;;1.40;;
56824;SDS011;42705;50.326;18.772;2023-08-07T11:21:07;2.40;;;1.80;;
56824;SDS011;42705;50.326;18.772;2023-08-07T11:26:32;3.80;;;1.50;;
56824;SDS011;42705;50.326;18.772;2023-08-07T11:31:54;2.50;;;1.20;;
56824;SDS011;42705;50.326;18.772;2023-08-07T11:37:16;1.80;;;1.50;;
56824;SDS011;42705;50.326;18.772;2023-08-07T11:42:42;4.00;;;2.10;;
56824;SDS011;42705;50.326;18.772;2023-08-07T11:48:04;1.50;;;1.30;;
56824;SDS011;42705;50.326;18.772;2023-08-07T11:53:27;3.00;;;1.40;;
56824;SDS011;42705;50.326;18.772;2023-08-07T11:58:51;3.80;;;1.90;;
56824;SDS011;42705;50.326;18.772;2023-08-07T12:04:16;3.20;;;1.90;;
56824;SDS011;42705;50.326;18.772;2023-08-07T12:09:39;2.80;;;1.50;;
56824;SDS011;42705;50.326;18.772;2023-08-07T12:15:06;4.00;;;1.70;;
56824;SDS011;42705;50.326;18.772;2023-08-07T12:20:31;2.60;;;1.10;;
56824;SDS011;42705;50.326;18.772;2023-08-07T12:25:53;3.10;;;1.80;;
56824;SDS011;42705;50.326;18.772;2023-08-07T12:31:17;2.80;;;1.50;;
56824;SDS011;42705;50.326;18.772;2023-08-07T12:36:39;2.30;;;1.60;;
56824;SDS011;42705;50.326;18.772;2023-08-07T12:42:01;4.30;;;2.20;;
56824;SDS011;42705;50.326;18.772;2023-08-07T12:47:26;3.70;;;2.30;;
56824;SDS011;42705;50.326;18.772;2023-08-07T12:52:48;4.40;;;2.00;;
56824;SDS011;42705;50.326;18.772;2023-08-07T13:03:33;3.40;;;2.40;;
56824;SDS011;42705;50.326;18.772;2023-08-07T13:08:55;4.40;;;2.50;;
56824;SDS011;42705;50.326;18.772;2023-08-07T13:14:18;3.90;;;2.80;;
56824;SDS011;42705;50.326;18.772;2023-08-07T13:19:40;2.60;;;2.40;;
56824;SDS011;42705;50.326;18.772;2023-08-07T13:25:02;1.80;;;1.60;;
56824;SDS011;42705;50.326;18.772;2023-08-07T13:30:25;2.40;;;1.70;;
56824;SDS011;42705;50.326;18.772;2023-08-07T13:35:53;4.10;;;1.60;;
56824;SDS011;42705;50.326;18.772;2023-08-07T13:41:16;2.00;;;1.20;;
56824;SDS011;42705;50.326;18.772;2023-08-07T13:46:38;2.20;;;1.00;;
56824;SDS011;42705;50.326;18.772;2023-08-07T13:52:01;2.00;;;1.10;;
56824;SDS011;42705;50.326;18.772;2023-08-07T13:57:23;1.70;;;0.80;;
56824;SDS011;42705;50.326;18.772;2023-08-07T14:02:45;1.20;;;0.90;;
56824;SDS011;42705;50.326;18.772;2023-08-07T14:08:07;2.80;;;1.20;;
56824;SDS011;42705;50.326;18.772;2023-08-07T14:13:32;2.40;;;1.40;;
56824;SDS011;42705;50.326;18.772;2023-08-07T14:18:54;1.90;;;1.30;;
56824;SDS011;42705;50.326;18.772;2023-08-07T14:24:16;3.40;;;1.50;;
56824;SDS011;42705;50.326;18.772;2023-08-07T14:29:38;1.90;;;1.20;;
56824;SDS011;42705;50.326;18.772;2023-08-07T14:35:01;2.90;;;1.70;;
56824;SDS011;42705;50.326;18.772;2023-08-07T14:40:23;2.40;;;1.70;;
56824;SDS011;42705;50.326;18.772;2023-08-07T14:45:45;3.20;;;2.10;;
56824;SDS011;42705;50.326;18.772;2023-08-07T14:51:07;2.90;;;1.90;;
56824;SDS011;42705;50.326;18.772;2023-08-07T14:56:30;2.60;;;2.00;;
56824;SDS011;42705;50.326;18.772;2023-08-07T15:01:52;3.20;;;2.00;;
56824;SDS011;42705;50.326;18.772;2023-08-07T15:07:14;2.10;;;1.50;;
56824;SDS011;42705;50.326;18.772;2023-08-07T15:12:36;3.70;;;1.60;;
56824;SDS011;42705;50.326;18.772;2023-08-07T15:23:26;3.40;;;1.40;;
56824;SDS011;42705;50.326;18.772;2023-08-07T15:28:48;2.90;;;1.50;;
56824;SDS011;42705;50.326;18.772;2023-08-07T15:34:11;2.30;;;1.40;;
56824;SDS011;42705;50.326;18.772;2023-08-07T15:44:55;3.60;;;1.30;;
56824;SDS011;42705;50.326;18.772;2023-08-07T15:55:39;2.30;;;1.20;;
56824;SDS011;42705;50.326;18.772;2023-08-07T16:01:01;1.80;;;1.00;;
56824;SDS011;42705;50.326;18.772;2023-08-07T16:06:25;2.90;;;1.10;;
56824;SDS011;42705;50.326;18.772;2023-08-07T16:11:47;2.10;;;1.10;;
56824;SDS011;42705;50.326;18.772;2023-08-07T16:17:10;1.30;;;1.20;;
56824;SDS011;42705;50.326;18.772;2023-08-07T16:22:32;2.40;;;1.30;;
56824;SDS011;42705;50.326;18.772;2023-08-07T16:27:56;1.50;;;1.20;;
56824;SDS011;42705;50.326;18.772;2023-08-07T16:33:18;1.70;;;1.30;;
56824;SDS011;42705;50.326;18.772;2023-08-07T16:38:41;2.50;;;1.50;;
56824;SDS011;42705;50.326;18.772;2023-08-07T16:44:03;2.20;;;1.40;;
56824;SDS011;42705;50.326;18.772;2023-08-07T16:54:47;2.20;;;1.50;;
56824;SDS011;42705;50.326;18.772;2023-08-07T17:00:11;1.70;;;1.60;;
56824;SDS011;42705;50.326;18.772;2023-08-07T17:05:34;2.50;;;1.80;;
56824;SDS011;42705;50.326;18.772;2023-08-07T17:10:56;2.90;;;1.40;;
56824;SDS011;42705;50.326;18.772;2023-08-07T17:16:18;1.90;;;1.30;;
56824;SDS011;42705;50.326;18.772;2023-08-07T17:21:40;2.20;;;1.60;;
56824;SDS011;42705;50.326;18.772;2023-08-07T17:27:02;2.70;;;2.10;;
56824;SDS011;42705;50.326;18.772;2023-08-07T17:37:47;3.90;;;2.50;;
56824;SDS011;42705;50.326;18.772;2023-08-07T17:43:09;3.40;;;2.70;;
56824;SDS011;42705;50.326;18.772;2023-08-07T17:48:31;2.90;;;2.30;;
56824;SDS011;42705;50.326;18.772;2023-08-07T17:53:54;2.20;;;2.00;;
56824;SDS011;42705;50.326;18.772;2023-08-07T17:59:16;2.70;;;2.50;;
56824;SDS011;42705;50.326;18.772;2023-08-07T18:04:38;2.20;;;1.80;;
56824;SDS011;42705;50.326;18.772;2023-08-07T18:10:04;2.70;;;2.10;;
56824;SDS011;42705;50.326;18.772;2023-08-07T18:15:27;3.10;;;1.90;;
56824;SDS011;42705;50.326;18.772;2023-08-07T18:20:50;3.30;;;1.90;;
56824;SDS011;42705;50.326;18.772;2023-08-07T18:26:12;2.50;;;2.00;;
56824;SDS011;42705;50.326;18.772;2023-08-07T18:31:34;5.00;;;1.80;;
56824;SDS011;42705;50.326;18.772;2023-08-07T18:36:57;4.10;;;1.80;;
56824;SDS011;42705;50.326;18.772;2023-08-07T18:47:44;2.10;;;1.30;;
56824;SDS011;42705;50.326;18.772;2023-08-07T18:53:07;1.80;;;1.70;;
56824;SDS011;42705;50.326;18.772;2023-08-07T18:58:30;1.60;;;1.50;;
56824;SDS011;42705;50.326;18.772;2023-08-07T19:03:52;1.90;;;1.50;;
56824;SDS011;42705;50.326;18.772;2023-08-07T19:09:15;2.70;;;1.80;;
56824;SDS011;42705;50.326;18.772;2023-08-07T19:14:39;1.40;;;1.30;;
56824;SDS011;42705;50.326;18.772;2023-08-07T19:20:02;3.70;;;1.20;;
56824;SDS011;42705;50.326;18.772;2023-08-07T19:25:25;3.10;;;1.40;;
56824;SDS011;42705;50.326;18.772;2023-08-07T19:30:48;0.80;;;0.70;;
56824;SDS011;42705;50.326;18.772;2023-08-07T19:36:11;1.50;;;1.00;;
56824;SDS011;42705;50.326;18.772;2023-08-07T19:41:34;1.40;;;1.10;;
56824;SDS011;42705;50.326;18.772;2023-08-07T19:46:58;1.20;;;0.90;;
56824;SDS011;42705;50.326;18.772;2023-08-07T19:52:21;3.20;;;0.90;;
56824;SDS011;42705;50.326;18.772;2023-08-07T19:57:44;1.60;;;1.00;;
56824;SDS011;42705;50.326;18.772;2023-08-07T20:03:09;1.90;;;0.80;;
56824;SDS011;42705;50.326;18.772;2023-08-07T20:08:33;3.30;;;1.00;;
56824;SDS011;42705;50.326;18.772;2023-08-07T20:13:56;1.10;;;0.80;;
56824;SDS011;42705;50.326;18.772;2023-08-07T20:19:20;1.70;;;0.70;;
56824;SDS011;42705;50.326;18.772;2023-08-07T20:24:45;1.70;;;0.80;;
56824;SDS011;42705;50.326;18.772;2023-08-07T20:30:07;1.70;;;1.10;;
56824;SDS011;42705;50.326;18.772;2023-08-07T20:35:30;1.30;;;0.70;;
56824;SDS011;42705;50.326;18.772;2023-08-07T20:40:52;1.00;;;0.80;;
56824;SDS011;42705;50.326;18.772;2023-08-07T20:46:15;1.00;;;0.90;;
56824;SDS011;42705;50.326;18.772;2023-08-07T20:51:38;2.10;;;0.50;;
56824;SDS011;42705;50.326;18.772;2023-08-07T20:57:01;1.30;;;0.70;;
56824;SDS011;42705;50.326;18.772;2023-08-07T21:02:24;2.10;;;1.10;;
56824;SDS011;42705;50.326;18.772;2023-08-07T21:07:47;2.70;;;0.80;;
56824;SDS011;42705;50.326;18.772;2023-08-07T21:13:09;1.70;;;0.90;;
56824;SDS011;42705;50.326;18.772;2023-08-07T21:18:31;0.90;;;0.90;;
56824;SDS011;42705;50.326;18.772;2023-08-07T21:23:53;1.90;;;0.50;;
56824;SDS011;42705;50.326;18.772;2023-08-07T21:29:16;1.80;;;0.70;;
56824;SDS011;42705;50.326;18.772;2023-08-07T21:34:38;2.80;;;1.00;;
56824;SDS011;42705;50.326;18.772;2023-08-07T21:40:00;1.60;;;0.60;;
56824;SDS011;42705;50.326;18.772;2023-08-07T21:45:22;0.40;;;0.40;;
56824;SDS011;42705;50.326;18.772;2023-08-07T21:50:45;1.10;;;0.70;;
56824;SDS011;42705;50.326;18.772;2023-08-07T21:56:07;3.50;;;0.40;;
56824;SDS011;42705;50.326;18.772;2023-08-07T22:01:29;1.60;;;0.50;;
56824;SDS011;42705;50.326;18.772;2023-08-07T22:06:51;0.70;;;0.50;;
56824;SDS011;42705;50.326;18.772;2023-08-07T22:12:13;0.80;;;0.40;;
56824;SDS011;42705;50.326;18.772;2023-08-07T22:17:35;1.30;;;0.50;;
56824;SDS011;42705;50.326;18.772;2023-08-07T22:22:57;2.10;;;0.40;;
56824;SDS011;42705;50.326;18.772;2023-08-07T22:28:20;1.30;;;0.30;;
56824;SDS011;42705;50.326;18.772;2023-08-07T22:33:42;2.50;;;0.50;;
56824;SDS011;42705;50.326;18.772;2023-08-07T22:39:04;0.90;;;0.30;;
56824;SDS011;42705;50.326;18.772;2023-08-07T22:44:26;0.70;;;0.40;;
56824;SDS011;42705;50.326;18.772;2023-08-07T22:49:49;1.50;;;0.50;;
56824;SDS011;42705;50.326;18.772;2023-08-07T22:55:11;3.10;;;0.40;;
56824;SDS011;42705;50.326;18.772;2023-08-07T23:00:34;0.60;;;0.20;;
56824;SDS011;42705;50.326;18.772;2023-08-07T23:05:57;0.50;;;0.30;;
56824;SDS011;42705;50.326;18.772;2023-08-07T23:11:20;0.90;;;0.30;;
56824;SDS011;42705;50.326;18.772;2023-08-07T23:16:42;0.80;;;0.30;;
56824;SDS011;42705;50.326;18.772;2023-08-07T23:22:05;0.40;;;0.40;;
56824;SDS011;42705;50.326;18.772;2023-08-07T23:27:27;0.60;;;0.30;;
56824;SDS011;42705;50.326;18.772;2023-08-07T23:32:50;0.40;;;0.40;;
56824;SDS011;42705;50.326;18.772;2023-08-07T23:38:12;2.00;;;0.70;;
56824;SDS011;42705;50.326;18.772;2023-08-07T23:43:34;0.50;;;0.50;;
56824;SDS011;42705;50.326;18.772;2023-08-07T23:48:56;2.00;;;0.40;;
56824;SDS011;42705;50.326;18.772;2023-08-07T23:54:19;1.30;;;0.40;;
56824;SDS011;42705;50.326;18.772;2023-08-07T23:59:41;1.60;;;0.50;;
